Terminal Aerodrome Forecast
Issued by NWS

Home | Current Version | Previous Version | Text Only | Print | Product List | Glossary On
Versions: 1 2 3 4 5 6 7 8 9 10 11 12 13 14 15 16 17 18 19
229
FTUS43 KGRB 212243 AAA
TAFMTW
TAF AMD
KMTW 212243Z 2123/2218 24011KT P6SM SCT040 BKN100
      TEMPO 2123/2124 6SM -TSRA BKN040CB
     FM220700 27004KT 4SM BR SCT007 SCT120
      TEMPO 2207/2211 1SM BR SCT004 SCT120
     FM221100 32004KT 5SM BR SCT150
     FM221300 32004KT P6SM SCT150=

USA.gov is the U.S. government's official web portal to all federal, state and local government web resources and services.